Weather at Sultan Mahmud Airport

Public forecast

Using degrees Celsius for public forecast. Weather courtesy of forecast.io.

Current aviation weather report (METAR) for Sultan Mahmud Airport

2022/11/27 01:00 (retrieved 46 minutes ago)

WMKN 270100Z VRB02KT 9999 FEW017CB SCT018 26/25 Q1010

Closest aviation forecast (TAF) to Sultan Mahmud Airport

Forecast is more than 12 hours old.

Closest forecast is Car Nicobar Air Force Base, 652.9 nm (1,209.1 km) WNW.

2022/11/26 12:00 (retrieved 14 hours ago)

TAF VOCX 260930Z 2612/2624 25010KT 6000 SCT018 SCT080 BKN200 TEMPO 2621/2624 2310KT 4000 RA SCT016 SCT022 BKN090